sensor_id;sensor_type;location;lat;lon;timestamp;pressure;altitude;pressure_sealevel;temperature;humidity
71145;BME280;58812;47.698;17.726;2022-12-18T00:01:43;101805.00;;;-3.87;100.00
71145;BME280;58812;47.698;17.726;2022-12-18T00:04:18;101807.63;;;-3.88;100.00
71145;BME280;58812;47.698;17.726;2022-12-18T00:06:45;101814.50;;;-3.78;100.00
71145;BME280;58812;47.698;17.726;2022-12-18T00:09:10;101811.00;;;-3.77;100.00
71145;BME280;58812;47.698;17.726;2022-12-18T00:11:36;101808.38;;;-3.77;100.00
71145;BME280;58812;47.698;17.726;2022-12-18T00:14:01;101808.41;;;-3.80;100.00
71145;BME280;58812;47.698;17.726;2022-12-18T00:16:28;101798.03;;;-3.88;100.00
71145;BME280;58812;47.698;17.726;2022-12-18T00:18:56;101804.28;;;-3.99;100.00
71145;BME280;58812;47.698;17.726;2022-12-18T00:21:22;101811.28;;;-4.01;100.00
71145;BME280;58812;47.698;17.726;2022-12-18T00:23:50;101807.88;;;-4.08;100.00
71145;BME280;58812;47.698;17.726;2022-12-18T00:26:19;101810.34;;;-3.97;100.00
71145;BME280;58812;47.698;17.726;2022-12-18T00:28:46;101819.87;;;-3.90;100.00
71145;BME280;58812;47.698;17.726;2022-12-18T00:31:16;101820.69;;;-3.84;100.00
71145;BME280;58812;47.698;17.726;2022-12-18T00:33:43;101819.81;;;-3.84;100.00
71145;BME280;58812;47.698;17.726;2022-12-18T00:36:14;101826.78;;;-3.83;100.00
71145;BME280;58812;47.698;17.726;2022-12-18T00:38:40;101816.31;;;-3.86;100.00
71145;BME280;58812;47.698;17.726;2022-12-18T00:41:06;101823.25;;;-3.79;100.00
71145;BME280;58812;47.698;17.726;2022-12-18T00:43:32;101824.09;;;-3.80;100.00
71145;BME280;58812;47.698;17.726;2022-12-18T00:45:57;101830.16;;;-3.75;100.00
71145;BME280;58812;47.698;17.726;2022-12-18T00:48:23;101835.41;;;-3.75;100.00
71145;BME280;58812;47.698;17.726;2022-12-18T00:50:49;101842.34;;;-3.74;100.00
71145;BME280;58812;47.698;17.726;2022-12-18T00:53:15;101842.41;;;-3.77;100.00
71145;BME280;58812;47.698;17.726;2022-12-18T00:55:41;101845.94;;;-3.81;100.00
71145;BME280;58812;47.698;17.726;2022-12-18T00:58:07;101845.94;;;-3.81;100.00
71145;BME280;58812;47.698;17.726;2022-12-18T01:00:33;101844.19;;;-3.82;100.00
71145;BME280;58812;47.698;17.726;2022-12-18T01:02:58;101839.03;;;-3.85;100.00
71145;BME280;58812;47.698;17.726;2022-12-18T01:05:24;101842.44;;;-3.80;100.00
71145;BME280;58812;47.698;17.726;2022-12-18T01:07:50;101840.69;;;-3.81;100.00
71145;BME280;58812;47.698;17.726;2022-12-18T01:10:15;101847.72;;;-3.83;100.00
71145;BME280;58812;47.698;17.726;2022-12-18T01:12:40;101857.28;;;-3.82;100.00
71145;BME280;58812;47.698;17.726;2022-12-18T01:15:07;101845.09;;;-3.86;100.00
71145;BME280;58812;47.698;17.726;2022-12-18T01:17:33;101861.66;;;-3.83;100.00
71145;BME280;58812;47.698;17.726;2022-12-18T01:19:58;101871.22;;;-3.82;100.00
71145;BME280;58812;47.698;17.726;2022-12-18T01:22:24;101868.63;;;-3.82;100.00
71145;BME280;58812;47.698;17.726;2022-12-18T01:24:49;101866.03;;;-3.86;100.00
71145;BME280;58812;47.698;17.726;2022-12-18T01:27:15;101876.50;;;-3.86;100.00
71145;BME280;58812;47.698;17.726;2022-12-18T01:29:40;101877.41;;;-3.89;100.00
71145;BME280;58812;47.698;17.726;2022-12-18T01:32:06;101879.19;;;-3.92;100.00
71145;BME280;58812;47.698;17.726;2022-12-18T01:34:31;101873.13;;;-3.96;100.00
71145;BME280;58812;47.698;17.726;2022-12-18T01:36:57;101887.97;;;-3.96;100.00
71145;BME280;58812;47.698;17.726;2022-12-18T01:39:23;101894.06;;;-3.99;100.00
71145;BME280;58812;47.698;17.726;2022-12-18T01:41:49;101889.75;;;-4.01;100.00
71145;BME280;58812;47.698;17.726;2022-12-18T01:50:27;101898.53;;;-4.09;100.00
71145;BME280;58812;47.698;17.726;2022-12-18T01:52:54;101908.13;;;-4.11;100.00
71145;BME280;58812;47.698;17.726;2022-12-18T01:55:24;101905.34;;;-3.92;100.00
71145;BME280;58812;47.698;17.726;2022-12-18T01:57:53;101902.00;;;-4.07;100.00
71145;BME280;58812;47.698;17.726;2022-12-18T02:00:21;101897.75;;;-4.18;100.00
71145;BME280;58812;47.698;17.726;2022-12-18T02:02:47;101896.03;;;-4.24;100.00
71145;BME280;58812;47.698;17.726;2022-12-18T02:05:27;101898.59;;;-4.18;100.00
71145;BME280;58812;47.698;17.726;2022-12-18T02:14:33;101921.28;;;-4.20;100.00
71145;BME280;58812;47.698;17.726;2022-12-18T02:17:01;101925.78;;;-4.40;100.00
71145;BME280;58812;47.698;17.726;2022-12-18T02:28:01;101930.22;;;-4.51;100.00
71145;BME280;58812;47.698;17.726;2022-12-18T02:30:31;101931.19;;;-4.65;100.00
71145;BME280;58812;47.698;17.726;2022-12-18T02:32:59;101939.06;;;-4.71;100.00
71145;BME280;58812;47.698;17.726;2022-12-18T02:35:29;101930.34;;;-4.70;100.00
71145;BME280;58812;47.698;17.726;2022-12-18T02:37:56;101932.13;;;-4.75;100.00
71145;BME280;58812;47.698;17.726;2022-12-18T02:40:24;101931.31;;;-4.85;100.00
71145;BME280;58812;47.698;17.726;2022-12-18T02:42:51;101942.59;;;-4.78;100.00
71145;BME280;58812;47.698;17.726;2022-12-18T02:45:17;101946.03;;;-4.71;100.00
71145;BME280;58812;47.698;17.726;2022-12-18T02:47:46;101943.44;;;-4.73;100.00
71145;BME280;58812;47.698;17.726;2022-12-18T02:50:36;101948.69;;;-4.79;100.00
71145;BME280;58812;47.698;17.726;2022-12-18T02:56:02;101955.75;;;-4.98;100.00
71145;BME280;58812;47.698;17.726;2022-12-18T03:01:21;101961.00;;;-5.02;100.00
71145;BME280;58812;47.698;17.726;2022-12-18T03:04:00;101967.97;;;-5.07;100.00
71145;BME280;58812;47.698;17.726;2022-12-18T03:06:32;101973.22;;;-5.18;100.00
71145;BME280;58812;47.698;17.726;2022-12-18T03:09:02;101977.59;;;-5.19;100.00
71145;BME280;58812;47.698;17.726;2022-12-18T03:11:33;101976.72;;;-5.13;100.00
71145;BME280;58812;47.698;17.726;2022-12-18T03:14:21;101969.72;;;-5.08;100.00
71145;BME280;58812;47.698;17.726;2022-12-18T03:16:54;101976.69;;;-5.12;100.00
71145;BME280;58812;47.698;17.726;2022-12-18T03:19:26;101980.22;;;-5.16;100.00
71145;BME280;58812;47.698;17.726;2022-12-18T03:21:54;101971.50;;;-5.19;100.00
71145;BME280;58812;47.698;17.726;2022-12-18T03:24:22;101984.59;;;-5.33;100.00
71145;BME280;58812;47.698;17.726;2022-12-18T03:26:52;101987.22;;;-5.38;100.00
71145;BME280;58812;47.698;17.726;2022-12-18T03:29:22;101982.84;;;-5.40;100.00
71145;BME280;58812;47.698;17.726;2022-12-18T03:31:53;101991.53;;;-5.29;100.00
71145;BME280;58812;47.698;17.726;2022-12-18T03:34:24;101985.44;;;-5.34;100.00
71145;BME280;58812;47.698;17.726;2022-12-18T03:36:52;102001.12;;;-5.35;100.00
71145;BME280;58812;47.698;17.726;2022-12-18T03:39:17;102007.22;;;-5.38;100.00
71145;BME280;58812;47.698;17.726;2022-12-18T03:49:35;102014.22;;;-5.55;100.00
71145;BME280;58812;47.698;17.726;2022-12-18T03:52:07;102018.59;;;-5.74;100.00
71145;BME280;58812;47.698;17.726;2022-12-18T03:54:35;102023.81;;;-5.80;100.00
71145;BME280;58812;47.698;17.726;2022-12-18T03:57:24;102015.97;;;-5.80;100.00
71145;BME280;58812;47.698;17.726;2022-12-18T03:59:55;102015.12;;;-5.81;100.00
71145;BME280;58812;47.698;17.726;2022-12-18T04:02:23;102013.34;;;-5.73;100.00
71145;BME280;58812;47.698;17.726;2022-12-18T04:04:52;102016.84;;;-5.61;100.00
71145;BME280;58812;47.698;17.726;2022-12-18T04:07:19;102005.53;;;-5.67;100.00
71145;BME280;58812;47.698;17.726;2022-12-18T04:09:47;102018.56;;;-5.57;100.00
71145;BME280;58812;47.698;17.726;2022-12-18T04:12:13;102027.25;;;-5.48;100.00
71145;BME280;58812;47.698;17.726;2022-12-18T04:14:38;102023.78;;;-5.59;100.00
71145;BME280;58812;47.698;17.726;2022-12-18T04:17:04;102026.41;;;-5.74;100.00
71145;BME280;58812;47.698;17.726;2022-12-18T04:19:29;102023.78;;;-5.76;100.00
71145;BME280;58812;47.698;17.726;2022-12-18T04:21:55;102038.59;;;-5.69;100.00
71145;BME280;58812;47.698;17.726;2022-12-18T04:24:20;102038.56;;;-5.78;100.00
71145;BME280;58812;47.698;17.726;2022-12-18T04:26:46;102036.81;;;-5.76;100.00
71145;BME280;58812;47.698;17.726;2022-12-18T04:29:11;102038.56;;;-5.78;100.00
71145;BME280;58812;47.698;17.726;2022-12-18T04:31:37;102032.50;;;-5.86;100.00
71145;BME280;58812;47.698;17.726;2022-12-18T04:34:03;102038.59;;;-5.87;100.00
71145;BME280;58812;47.698;17.726;2022-12-18T04:36:28;102036.84;;;-5.85;100.00
71145;BME280;58812;47.698;17.726;2022-12-18T04:38:54;102049.00;;;-5.72;100.00
71145;BME280;58812;47.698;17.726;2022-12-18T04:41:19;102052.47;;;-5.76;100.00
71145;BME280;58812;47.698;17.726;2022-12-18T04:43:45;102048.16;;;-5.80;100.00
71145;BME280;58812;47.698;17.726;2022-12-18T04:46:10;102050.75;;;-5.80;100.00
71145;BME280;58812;47.698;17.726;2022-12-18T04:48:36;102050.72;;;-5.87;100.00
71145;BME280;58812;47.698;17.726;2022-12-18T04:51:02;102052.50;;;-5.91;100.00
71145;BME280;58812;47.698;17.726;2022-12-18T04:53:27;102060.31;;;-5.94;100.00
71145;BME280;58812;47.698;17.726;2022-12-18T04:56:10;102059.44;;;-5.95;100.00
71145;BME280;58812;47.698;17.726;2022-12-18T04:58:38;102062.06;;;-5.92;100.00
71145;BME280;58812;47.698;17.726;2022-12-18T05:01:05;102064.66;;;-5.93;100.00
71145;BME280;58812;47.698;17.726;2022-12-18T05:03:31;102057.72;;;-5.97;100.00
71145;BME280;58812;47.698;17.726;2022-12-18T05:05:56;102063.81;;;-5.98;100.00
71145;BME280;58812;47.698;17.726;2022-12-18T05:08:22;102069.88;;;-5.99;100.00
71145;BME280;58812;47.698;17.726;2022-12-18T05:10:48;102075.09;;;-6.02;100.00
71145;BME280;58812;47.698;17.726;2022-12-18T05:13:14;102080.28;;;-5.99;100.00
71145;BME280;58812;47.698;17.726;2022-12-18T05:15:39;102068.13;;;-6.00;100.00
71145;BME280;58812;47.698;17.726;2022-12-18T05:18:04;102074.22;;;-6.09;100.00
71145;BME280;58812;47.698;17.726;2022-12-18T05:20:30;102075.03;;;-6.24;100.00
71145;BME280;58812;47.698;17.726;2022-12-18T05:22:56;102078.50;;;-6.31;100.00
71145;BME280;58812;47.698;17.726;2022-12-18T05:25:22;102075.03;;;-6.30;100.00
71145;BME280;58812;47.698;17.726;2022-12-18T05:27:48;102091.59;;;-6.02;100.00
71145;BME280;58812;47.698;17.726;2022-12-18T05:30:14;102083.75;;;-6.06;100.00
71145;BME280;58812;47.698;17.726;2022-12-18T05:32:40;102087.19;;;-6.29;100.00
71145;BME280;58812;47.698;17.726;2022-12-18T05:35:07;102087.19;;;-6.29;100.00
71145;BME280;58812;47.698;17.726;2022-12-18T05:37:33;102095.03;;;-6.26;100.00
71145;BME280;58812;47.698;17.726;2022-12-18T05:39:58;102089.81;;;-6.27;100.00
71145;BME280;58812;47.698;17.726;2022-12-18T05:42:24;102093.28;;;-6.24;100.00
71145;BME280;58812;47.698;17.726;2022-12-18T05:44:49;102099.38;;;-6.25;100.00
71145;BME280;58812;47.698;17.726;2022-12-18T05:47:14;102106.31;;;-6.34;100.00
71145;BME280;58812;47.698;17.726;2022-12-18T05:49:40;102108.00;;;-6.39;100.00
71145;BME280;58812;47.698;17.726;2022-12-18T05:52:05;102114.94;;;-6.46;100.00
71145;BME280;58812;47.698;17.726;2022-12-18T05:54:31;102107.97;;;-6.50;100.00
71145;BME280;58812;47.698;17.726;2022-12-18T05:56:57;102116.69;;;-6.43;100.00
71145;BME280;58812;47.698;17.726;2022-12-18T05:59:22;102114.09;;;-6.37;100.00
71145;BME280;58812;47.698;17.726;2022-12-18T06:01:48;102116.72;;;-6.30;100.00
71145;BME280;58812;47.698;17.726;2022-12-18T06:04:13;102120.22;;;-6.25;100.00
71145;BME280;58812;47.698;17.726;2022-12-18T06:06:38;102128.91;;;-6.24;100.00
71145;BME280;58812;47.698;17.726;2022-12-18T06:09:04;102128.91;;;-6.20;100.00
71145;BME280;58812;47.698;17.726;2022-12-18T06:11:34;102128.91;;;-6.23;100.00
71145;BME280;58812;47.698;17.726;2022-12-18T06:14:00;102133.22;;;-6.31;100.00
71145;BME280;58812;47.698;17.726;2022-12-18T06:16:27;102134.09;;;-6.29;100.00
71145;BME280;58812;47.698;17.726;2022-12-18T06:18:55;102141.97;;;-6.21;100.00
71145;BME280;58812;47.698;17.726;2022-12-18T06:21:21;102128.91;;;-6.23;100.00
71145;BME280;58812;47.698;17.726;2022-12-18T06:23:47;102135.84;;;-6.26;100.00
71145;BME280;58812;47.698;17.726;2022-12-18T06:26:13;102128.87;;;-6.29;100.00
71145;BME280;58812;47.698;17.726;2022-12-18T06:28:38;102134.06;;;-6.38;100.00
71145;BME280;58812;47.698;17.726;2022-12-18T06:31:04;102134.91;;;-6.43;100.00
71145;BME280;58812;47.698;17.726;2022-12-18T06:33:30;102147.94;;;-6.42;100.00
71145;BME280;58812;47.698;17.726;2022-12-18T06:36:01;102144.50;;;-6.29;100.00
71145;BME280;58812;47.698;17.726;2022-12-18T06:38:27;102152.37;;;-6.27;100.00
71145;BME280;58812;47.698;17.726;2022-12-18T06:40:53;102148.00;;;-6.24;100.00
71145;BME280;58812;47.698;17.726;2022-12-18T06:43:18;102155.03;;;-6.10;100.00
71145;BME280;58812;47.698;17.726;2022-12-18T06:45:44;102168.94;;;-5.99;100.00
71145;BME280;58812;47.698;17.726;2022-12-18T06:48:09;102163.72;;;-6.08;100.00
71145;BME280;58812;47.698;17.726;2022-12-18T06:50:35;102167.22;;;-6.00;100.00
71145;BME280;58812;47.698;17.726;2022-12-18T06:53:00;102170.66;;;-6.13;100.00
71145;BME280;58812;47.698;17.726;2022-12-18T06:55:26;102177.56;;;-6.17;100.00
71145;BME280;58812;47.698;17.726;2022-12-18T06:57:51;102178.50;;;-6.10;100.00
71145;BME280;58812;47.698;17.726;2022-12-18T07:00:17;102181.12;;;-6.04;100.00
71145;BME280;58812;47.698;17.726;2022-12-18T07:02:42;102182.87;;;-5.94;100.00
71145;BME280;58812;47.698;17.726;2022-12-18T07:05:08;102196.81;;;-5.92;100.00
71145;BME280;58812;47.698;17.726;2022-12-18T07:07:34;102184.59;;;-6.02;100.00
71145;BME280;58812;47.698;17.726;2022-12-18T07:10:00;102200.25;;;-5.96;100.00
71145;BME280;58812;47.698;17.726;2022-12-18T07:12:26;102207.25;;;-5.92;100.00
71145;BME280;58812;47.698;17.726;2022-12-18T07:14:52;102211.59;;;-5.77;100.00
71145;BME280;58812;47.698;17.726;2022-12-18T07:17:17;102214.22;;;-5.70;100.00
71145;BME280;58812;47.698;17.726;2022-12-18T07:19:43;102219.44;;;-5.67;100.00
71145;BME280;58812;47.698;17.726;2022-12-18T07:22:08;102224.69;;;-5.54;100.00
71145;BME280;58812;47.698;17.726;2022-12-18T07:24:34;102229.91;;;-5.60;100.00
71145;BME280;58812;47.698;17.726;2022-12-18T07:27:00;102241.19;;;-5.65;100.00
71145;BME280;58812;47.698;17.726;2022-12-18T07:29:25;102235.12;;;-5.60;100.00
71145;BME280;58812;47.698;17.726;2022-12-18T07:31:51;102242.09;;;-5.56;100.00
71145;BME280;58812;47.698;17.726;2022-12-18T07:34:16;102257.75;;;-5.53;100.00
71145;BME280;58812;47.698;17.726;2022-12-18T07:36:42;102269.06;;;-5.41;100.00
71145;BME280;58812;47.698;17.726;2022-12-18T07:39:07;102268.25;;;-5.32;100.00
71145;BME280;58812;47.698;17.726;2022-12-18T07:41:33;102274.37;;;-5.15;100.00
71145;BME280;58812;47.698;17.726;2022-12-18T07:43:59;102271.75;;;-5.08;100.00
71145;BME280;58812;47.698;17.726;2022-12-18T07:46:24;102277.84;;;-5.08;100.00
71145;BME280;58812;47.698;17.726;2022-12-18T07:48:49;102286.53;;;-5.04;100.00
71145;BME280;58812;47.698;17.726;2022-12-18T07:51:15;102289.19;;;-4.95;100.00
71145;BME280;58812;47.698;17.726;2022-12-18T07:53:41;102285.72;;;-4.85;100.00
71145;BME280;58812;47.698;17.726;2022-12-18T07:56:09;102287.44;;;-4.75;100.00
71145;BME280;58812;47.698;17.726;2022-12-18T07:58:37;102292.69;;;-4.57;100.00
71145;BME280;58812;47.698;17.726;2022-12-18T08:03:29;102294.41;;;-4.43;100.00
71145;BME280;58812;47.698;17.726;2022-12-18T08:06:01;102290.94;;;-4.54;100.00
71145;BME280;58812;47.698;17.726;2022-12-18T08:08:28;102299.62;;;-4.52;100.00
71145;BME280;58812;47.698;17.726;2022-12-18T08:10:54;102296.12;;;-4.47;100.00
71145;BME280;58812;47.698;17.726;2022-12-18T08:13:19;102297.03;;;-4.39;100.00
71145;BME280;58812;47.698;17.726;2022-12-18T08:15:45;102296.09;;;-4.24;100.00
71145;BME280;58812;47.698;17.726;2022-12-18T08:18:10;102299.56;;;-4.11;100.00
71145;BME280;58812;47.698;17.726;2022-12-18T08:20:35;102303.03;;;-4.05;100.00
71145;BME280;58812;47.698;17.726;2022-12-18T08:23:01;102298.69;;;-4.01;100.00
71145;BME280;58812;47.698;17.726;2022-12-18T08:25:26;102304.75;;;-3.97;100.00
71145;BME280;58812;47.698;17.726;2022-12-18T08:27:52;102297.78;;;-3.95;100.00
71145;BME280;58812;47.698;17.726;2022-12-18T08:30:17;102297.78;;;-3.89;100.00
71145;BME280;58812;47.698;17.726;2022-12-18T08:32:43;102300.41;;;-3.91;100.00
71145;BME280;58812;47.698;17.726;2022-12-18T08:35:08;102304.75;;;-3.88;100.00
71145;BME280;58812;47.698;17.726;2022-12-18T08:37:34;102300.34;;;-3.79;100.00
71145;BME280;58812;47.698;17.726;2022-12-18T08:39:59;102303.81;;;-3.72;100.00
71145;BME280;58812;47.698;17.726;2022-12-18T08:42:25;102307.28;;;-3.74;100.00
71145;BME280;58812;47.698;17.726;2022-12-18T08:45:09;102300.34;;;-3.72;100.00
71145;BME280;58812;47.698;17.726;2022-12-18T08:47:35;102298.50;;;-3.57;100.00
71145;BME280;58812;47.698;17.726;2022-12-18T08:50:00;102301.16;;;-3.60;99.90
71145;BME280;58812;47.698;17.726;2022-12-18T08:52:26;102307.16;;;-3.44;100.00
71145;BME280;58812;47.698;17.726;2022-12-18T08:54:51;102304.50;;;-3.35;100.00
71145;BME280;58812;47.698;17.726;2022-12-18T08:57:16;102309.75;;;-3.32;100.00
71145;BME280;58812;47.698;17.726;2022-12-18T08:59:42;102307.91;;;-3.20;100.00
71145;BME280;58812;47.698;17.726;2022-12-18T09:02:11;102307.97;;;-3.25;100.00
71145;BME280;58812;47.698;17.726;2022-12-18T09:04:36;102316.66;;;-3.23;100.00
71145;BME280;58812;47.698;17.726;2022-12-18T09:07:02;102311.34;;;-3.11;100.00
71145;BME280;58812;47.698;17.726;2022-12-18T09:09:27;102313.03;;;-3.01;100.00
71145;BME280;58812;47.698;17.726;2022-12-18T09:11:52;102323.44;;;-2.88;100.00
71145;BME280;58812;47.698;17.726;2022-12-18T09:14:18;102318.13;;;-2.79;100.00
71145;BME280;58812;47.698;17.726;2022-12-18T09:16:43;102322.50;;;-2.81;99.01
71145;BME280;58812;47.698;17.726;2022-12-18T09:19:09;102332.06;;;-2.74;99.09
71145;BME280;58812;47.698;17.726;2022-12-18T09:21:38;102330.31;;;-2.74;98.29
71145;BME280;58812;47.698;17.726;2022-12-18T09:24:08;102319.75;;;-2.64;98.18
71145;BME280;58812;47.698;17.726;2022-12-18T09:26:37;102322.25;;;-2.48;97.39
71145;BME280;58812;47.698;17.726;2022-12-18T09:29:03;102333.53;;;-2.36;96.79
71145;BME280;58812;47.698;17.726;2022-12-18T09:31:28;102322.84;;;-2.20;96.07
71145;BME280;58812;47.698;17.726;2022-12-18T09:33:55;102323.41;;;-1.87;96.00
71145;BME280;58812;47.698;17.726;2022-12-18T09:36:21;102322.25;;;-1.63;94.06
71145;BME280;58812;47.698;17.726;2022-12-18T09:38:46;102328.19;;;-1.49;91.95
71145;BME280;58812;47.698;17.726;2022-12-18T09:43:52;102335.16;;;-0.82;90.02
71145;BME280;58812;47.698;17.726;2022-12-18T09:46:25;102334.50;;;-0.42;88.34
71145;BME280;58812;47.698;17.726;2022-12-18T09:48:52;102340.06;;;-0.60;86.18
71145;BME280;58812;47.698;17.726;2022-12-18T09:51:27;102341.25;;;-0.25;85.63
71145;BME280;58812;47.698;17.726;2022-12-18T09:53:58;102338.59;;;-0.25;83.02
71145;BME280;58812;47.698;17.726;2022-12-18T09:56:28;102332.44;;;0.23;83.37
71145;BME280;58812;47.698;17.726;2022-12-18T09:58:58;102336.00;;;0.64;82.06
71145;BME280;58812;47.698;17.726;2022-12-18T10:01:24;102339.72;;;0.96;81.71
71145;BME280;58812;47.698;17.726;2022-12-18T10:03:51;102340.22;;;1.13;77.59
71145;BME280;58812;47.698;17.726;2022-12-18T10:06:29;102347.69;;;1.31;76.67
71145;BME280;58812;47.698;17.726;2022-12-18T10:12:02;102344.09;;;2.04;76.30
71145;BME280;58812;47.698;17.726;2022-12-18T10:14:40;102345.81;;;2.37;71.96
71145;BME280;58812;47.698;17.726;2022-12-18T10:17:27;102337.12;;;2.63;70.80
71145;BME280;58812;47.698;17.726;2022-12-18T10:20:13;102334.63;;;2.28;70.42
71145;BME280;58812;47.698;17.726;2022-12-18T10:25:18;102346.97;;;1.95;70.14
71145;BME280;58812;47.698;17.726;2022-12-18T10:27:45;102330.25;;;1.60;71.74
71145;BME280;58812;47.698;17.726;2022-12-18T10:30:15;102329.13;;;1.70;70.86
71145;BME280;58812;47.698;17.726;2022-12-18T10:32:41;102330.19;;;1.63;72.71
71145;BME280;58812;47.698;17.726;2022-12-18T10:35:26;102333.00;;;1.91;72.59
71145;BME280;58812;47.698;17.726;2022-12-18T10:38:20;102338.22;;;1.93;69.31
71145;BME280;58812;47.698;17.726;2022-12-18T10:40:55;102327.84;;;2.49;70.15
71145;BME280;58812;47.698;17.726;2022-12-18T10:43:26;102323.41;;;3.36;65.45
71145;BME280;58812;47.698;17.726;2022-12-18T10:48:54;102317.59;;;1.74;69.91
71145;BME280;58812;47.698;17.726;2022-12-18T10:51:24;102322.44;;;1.90;70.01
71145;BME280;58812;47.698;17.726;2022-12-18T10:54:05;102322.88;;;2.69;67.51
71145;BME280;58812;47.698;17.726;2022-12-18T10:56:33;102321.81;;;2.45;67.22
71145;BME280;58812;47.698;17.726;2022-12-18T10:59:06;102326.03;;;3.10;67.22
71145;BME280;58812;47.698;17.726;2022-12-18T11:04:20;102321.28;;;3.74;65.31
71145;BME280;58812;47.698;17.726;2022-12-18T11:09:25;102309.88;;;3.45;64.24
71145;BME280;58812;47.698;17.726;2022-12-18T11:11:53;102302.41;;;3.30;64.79
71145;BME280;58812;47.698;17.726;2022-12-18T11:14:26;102306.28;;;3.73;63.71
71145;BME280;58812;47.698;17.726;2022-12-18T11:16:53;102302.62;;;4.27;63.23
71145;BME280;58812;47.698;17.726;2022-12-18T11:21:49;102304.44;;;4.25;61.42
71145;BME280;58812;47.698;17.726;2022-12-18T11:26:46;102295.47;;;4.29;61.87
71145;BME280;58812;47.698;17.726;2022-12-18T11:29:24;102299.59;;;1.88;68.51
71145;BME280;58812;47.698;17.726;2022-12-18T11:32:12;102294.13;;;1.95;68.31
71145;BME280;58812;47.698;17.726;2022-12-18T11:34:38;102306.69;;;2.49;68.00
71145;BME280;58812;47.698;17.726;2022-12-18T11:37:04;102306.03;;;2.11;69.41
71145;BME280;58812;47.698;17.726;2022-12-18T11:39:37;102294.56;;;1.45;69.28
71145;BME280;58812;47.698;17.726;2022-12-18T11:49:49;102295.22;;;1.55;71.10
71145;BME280;58812;47.698;17.726;2022-12-18T11:52:23;102294.06;;;1.98;69.82
71145;BME280;58812;47.698;17.726;2022-12-18T11:54:54;102281.03;;;1.92;69.54
71145;BME280;58812;47.698;17.726;2022-12-18T12:00:22;102283.06;;;2.13;67.58
71145;BME280;58812;47.698;17.726;2022-12-18T12:05:51;102276.81;;;0.79;72.33
71145;BME280;58812;47.698;17.726;2022-12-18T12:28:12;102303.34;;;2.12;69.36
71145;BME280;58812;47.698;17.726;2022-12-18T12:38:46;102303.38;;;0.70;74.10
71145;BME280;58812;47.698;17.726;2022-12-18T12:41:18;102305.25;;;1.03;72.88
71145;BME280;58812;47.698;17.726;2022-12-18T12:44:07;102299.94;;;1.05;72.69
71145;BME280;58812;47.698;17.726;2022-12-18T12:46:38;102286.63;;;0.72;73.35
71145;BME280;58812;47.698;17.726;2022-12-18T12:49:13;102289.75;;;0.90;74.71
71145;BME280;58812;47.698;17.726;2022-12-18T12:51:42;102287.94;;;0.92;74.07
71145;BME280;58812;47.698;17.726;2022-12-18T12:54:17;102291.09;;;1.43;72.86
71145;BME280;58812;47.698;17.726;2022-12-18T12:56:51;102295.06;;;1.59;72.55
71145;BME280;58812;47.698;17.726;2022-12-18T12:59:28;102289.03;;;1.56;71.63
71145;BME280;58812;47.698;17.726;2022-12-18T13:02:20;102291.47;;;1.96;70.13
71145;BME280;58812;47.698;17.726;2022-12-18T13:07:39;102291.16;;;2.07;69.32
71145;BME280;58812;47.698;17.726;2022-12-18T13:15:45;102297.34;;;2.37;68.17
71145;BME280;58812;47.698;17.726;2022-12-18T13:20:47;102289.81;;;2.23;68.87
71145;BME280;58812;47.698;17.726;2022-12-18T13:23:27;102297.87;;;1.53;70.33
71145;BME280;58812;47.698;17.726;2022-12-18T13:25:57;102307.09;;;1.71;71.38
71145;BME280;58812;47.698;17.726;2022-12-18T13:31:12;102306.12;;;2.08;69.43
71145;BME280;58812;47.698;17.726;2022-12-18T13:33:46;102300.91;;;2.05;70.33
71145;BME280;58812;47.698;17.726;2022-12-18T13:36:38;102295.53;;;1.43;72.72
71145;BME280;58812;47.698;17.726;2022-12-18T13:41:49;102303.84;;;1.60;72.18
71145;BME280;58812;47.698;17.726;2022-12-18T13:44:31;102306.47;;;1.62;72.49
71145;BME280;58812;47.698;17.726;2022-12-18T13:46:58;102316.47;;;1.49;72.83
71145;BME280;58812;47.698;17.726;2022-12-18T13:49:39;102313.84;;;1.47;73.07
71145;BME280;58812;47.698;17.726;2022-12-18T13:52:21;102319.47;;;1.33;73.02
71145;BME280;58812;47.698;17.726;2022-12-18T13:54:57;102318.72;;;1.28;73.47
71145;BME280;58812;47.698;17.726;2022-12-18T13:57:29;102317.13;;;1.21;73.62
71145;BME280;58812;47.698;17.726;2022-12-18T13:59:56;102324.56;;;1.04;74.52
71145;BME280;58812;47.698;17.726;2022-12-18T14:02:23;102336.22;;;0.94;75.17
71145;BME280;58812;47.698;17.726;2022-12-18T14:04:50;102333.47;;;0.58;76.77
71145;BME280;58812;47.698;17.726;2022-12-18T14:07:28;102327.91;;;0.32;77.51
71145;BME280;58812;47.698;17.726;2022-12-18T14:09:56;102341.84;;;0.35;77.90
71145;BME280;58812;47.698;17.726;2022-12-18T14:12:27;102339.03;;;0.01;79.23
71145;BME280;58812;47.698;17.726;2022-12-18T14:17:58;102342.88;;;-0.18;80.47
71145;BME280;58812;47.698;17.726;2022-12-18T14:20:26;102349.94;;;-0.20;80.62
71145;BME280;58812;47.698;17.726;2022-12-18T14:22:52;102344.78;;;-0.27;81.05
71145;BME280;58812;47.698;17.726;2022-12-18T14:25:26;102338.56;;;-0.22;82.00
71145;BME280;58812;47.698;17.726;2022-12-18T14:28:12;102340.34;;;-0.24;81.88
71145;BME280;58812;47.698;17.726;2022-12-18T14:30:40;102339.47;;;-0.23;82.11
71145;BME280;58812;47.698;17.726;2022-12-18T14:33:18;102335.19;;;-0.31;82.92
71145;BME280;58812;47.698;17.726;2022-12-18T14:36:03;102347.66;;;-0.42;82.63
71145;BME280;58812;47.698;17.726;2022-12-18T14:41:00;102349.84;;;-0.68;84.16
71145;BME280;58812;47.698;17.726;2022-12-18T14:43:32;102346.47;;;-0.78;84.69
71145;BME280;58812;47.698;17.726;2022-12-18T14:45:58;102355.31;;;-0.84;85.41